Time;durP1;ratioP1;P1;durP2;ratioP2;P2;SDS_P1;SDS_P2;PMS_P1;PMS_P2;Temp;Humidity;BMP_temperature;BMP_pressure;BME280_temperature;BME280_humidity;BME280_pressure;Samples;Min_cycle;Max_cycle;Signal;HPM_P1;HPM_P2
2022/07/05 00:02:00;;;;;;;7.90;2.90;;;16.00;99.90;;;;;;5069547;28;20087;-64
2022/07/05 00:04:26;;;;;;;6.82;2.88;;;15.90;99.90;;;;;;5068256;28;20427;-67
2022/07/05 00:09:36;;;;;;;5.07;2.60;;;15.90;99.90;;;;;;5067277;28;20450;-64
2022/07/05 00:12:02;;;;;;;6.55;2.90;;;15.90;99.90;;;;;;5065392;28;20123;-64
2022/07/05 00:14:28;;;;;;;6.60;2.83;;;15.90;99.90;;;;;;5051384;28;20040;-64
2022/07/05 00:16:54;;;;;;;4.47;2.70;;;15.80;99.90;;;;;;5069689;28;20044;-64
2022/07/05 00:19:19;;;;;;;4.53;2.75;;;15.80;99.90;;;;;;5068214;28;20374;-64
2022/07/05 00:21:45;;;;;;;6.10;3.22;;;15.80;99.90;;;;;;5068648;28;20216;-63
2022/07/05 00:24:11;;;;;;;4.65;2.70;;;15.80;99.90;;;;;;5069342;28;20071;-64
2022/07/05 00:26:36;;;;;;;5.35;2.90;;;15.70;99.90;;;;;;5067542;28;20048;-64
2022/07/05 00:29:02;;;;;;;4.72;2.58;;;15.70;99.90;;;;;;5067710;28;20040;-64
2022/07/05 00:31:28;;;;;;;6.13;3.13;;;15.70;99.90;;;;;;5068698;28;20096;-67
2022/07/05 00:33:54;;;;;;;6.97;2.80;;;15.70;99.90;;;;;;5069234;28;20051;-64
2022/07/05 00:36:19;;;;;;;5.00;2.78;;;15.60;99.90;;;;;;5068230;28;20053;-64
2022/07/05 00:38:45;;;;;;;8.10;2.95;;;15.70;99.90;;;;;;5070772;28;20119;-64
2022/07/05 00:41:11;;;;;;;5.45;2.78;;;15.60;99.90;;;;;;5072122;28;20489;-64
2022/07/05 00:43:36;;;;;;;5.78;2.72;;;15.60;99.90;;;;;;5071857;28;20044;-64
2022/07/05 00:46:02;;;;;;;5.30;2.97;;;15.60;99.90;;;;;;5073511;28;20093;-63
2022/07/05 00:48:28;;;;;;;7.32;3.20;;;15.60;99.90;;;;;;5071845;28;20428;-63
2022/07/05 00:50:54;;;;;;;7.72;2.90;;;15.50;99.90;;;;;;5071810;28;20091;-63
2022/07/05 00:53:19;;;;;;;4.28;2.22;;;15.50;99.90;;;;;;5071286;28;20049;-63
2022/07/05 00:55:45;;;;;;;5.75;2.60;;;15.50;99.90;;;;;;5071912;28;20114;-64
2022/07/05 00:58:11;;;;;;;4.07;2.47;;;15.50;99.90;;;;;;5068129;28;20052;-64
2022/07/05 01:00:38;;;;;;;5.60;2.88;;;15.50;99.90;;;;;;5071136;28;20060;-64
2022/07/05 01:03:04;;;;;;;6.15;2.88;;;15.40;99.90;;;;;;5071385;28;20052;-64
2022/07/05 01:05:32;;;;;;;8.45;3.15;;;15.40;99.90;;;;;;5072728;28;20033;-63
2022/07/05 01:08:00;;;;;;;4.78;2.90;;;15.40;99.90;;;;;;5071995;28;20049;-64
2022/07/05 01:10:26;;;;;;;8.35;3.15;;;15.40;99.90;;;;;;5069669;28;20111;-65
2022/07/05 01:12:52;;;;;;;6.53;3.10;;;15.40;99.90;;;;;;5071100;28;20056;-64
2022/07/05 01:15:21;;;;;;;4.68;3.08;;;15.30;99.90;;;;;;5070577;28;20405;-64
2022/07/05 01:17:47;;;;;;;4.50;2.72;;;15.30;99.90;;;;;;5071600;28;20481;-64
2022/07/05 01:20:14;;;;;;;5.18;2.92;;;15.30;99.90;;;;;;5072397;28;20056;-64
2022/07/05 01:22:54;;;;;;;4.50;2.60;;;15.30;99.90;;;;;;5070779;28;20047;-64
2022/07/05 01:25:21;;;;;;;4.75;2.92;;;15.20;99.90;;;;;;5070228;28;20045;-64
2022/07/05 01:27:48;;;;;;;4.93;3.03;;;15.20;99.90;;;;;;5072142;28;20048;-65
2022/07/05 01:30:15;;;;;;;4.85;3.15;;;15.20;99.90;;;;;;5071068;28;20048;-65
2022/07/05 01:32:41;;;;;;;4.97;3.10;;;15.20;99.90;;;;;;5067631;28;20084;-64
2022/07/05 01:35:09;;;;;;;4.40;2.63;;;15.20;99.90;;;;;;5072252;28;20080;-64
2022/07/05 01:37:35;;;;;;;4.82;2.80;;;15.10;99.90;;;;;;5070804;28;20043;-64
2022/07/05 01:40:03;;;;;;;6.40;3.20;;;15.00;99.90;;;;;;5071067;28;20129;-64
2022/07/05 01:42:29;;;;;;;8.25;3.30;;;15.10;99.90;;;;;;5071411;28;20044;-64
2022/07/05 01:44:54;;;;;;;5.68;3.20;;;15.00;99.90;;;;;;5069929;28;20041;-64
2022/07/05 01:47:20;;;;;;;4.25;2.97;;;15.00;99.90;;;;;;5054381;28;20053;-64
2022/07/05 01:49:49;;;;;;;5.95;3.35;;;15.00;99.90;;;;;;5071285;28;20045;-64
2022/07/05 01:52:19;;;;;;;5.95;3.10;;;14.90;99.90;;;;;;5070729;28;20456;-65
2022/07/05 01:54:44;;;;;;;4.93;3.38;;;14.90;99.90;;;;;;5068666;28;20050;-64
2022/07/05 01:57:10;;;;;;;5.28;3.17;;;14.80;99.90;;;;;;5071918;28;20127;-64
2022/07/05 01:59:37;;;;;;;5.70;3.15;;;14.80;99.90;;;;;;5071951;28;20056;-64
2022/07/05 02:02:04;;;;;;;6.63;3.10;;;14.80;99.90;;;;;;5071026;28;20048;-64
2022/07/05 02:04:31;;;;;;;5.22;3.50;;;14.80;99.90;;;;;;5071776;28;20044;-65
2022/07/05 02:06:57;;;;;;;8.43;3.63;;;14.70;99.90;;;;;;5071093;28;20354;-64
2022/07/05 02:09:23;;;;;;;4.68;3.20;;;14.70;99.90;;;;;;5071742;28;20127;-64
2022/07/05 02:11:49;;;;;;;6.18;3.65;;;14.70;99.90;;;;;;5050341;28;20459;-64
2022/07/05 02:14:15;;;;;;;6.40;3.75;;;14.60;99.90;;;;;;5071136;28;20127;-64
2022/07/05 02:16:40;;;;;;;7.82;3.38;;;14.60;99.90;;;;;;5069903;28;20501;-64
2022/07/05 02:19:06;;;;;;;6.28;3.83;;;14.60;99.90;;;;;;5068428;28;20125;-64
2022/07/05 02:21:32;;;;;;;6.18;3.80;;;14.50;99.90;;;;;;5070167;28;20040;-64
2022/07/05 02:23:57;;;;;;;7.03;3.60;;;14.50;99.90;;;;;;5070079;28;20051;-64
2022/07/05 02:26:23;;;;;;;4.80;3.63;;;14.50;99.90;;;;;;5070787;28;20066;-65
2022/07/05 02:28:49;;;;;;;6.70;3.72;;;14.50;99.90;;;;;;5070471;28;20041;-65
2022/07/05 02:31:16;;;;;;;6.38;3.95;;;14.50;99.90;;;;;;5069808;28;20052;-65
2022/07/05 02:33:42;;;;;;;5.72;3.90;;;14.40;99.90;;;;;;5070846;28;20051;-65
2022/07/05 02:36:10;;;;;;;5.35;4.10;;;14.40;99.90;;;;;;5070556;28;20048;-65
2022/07/05 02:38:36;;;;;;;6.10;4.18;;;14.40;99.90;;;;;;5069191;28;20401;-64
2022/07/05 02:41:07;;;;;;;4.80;3.95;;;14.40;99.90;;;;;;5069689;28;20049;-65
2022/07/05 02:43:34;;;;;;;8.07;4.60;;;14.30;99.90;;;;;;5062660;28;20131;-65
2022/07/05 02:46:04;;;;;;;5.43;3.97;;;14.30;99.90;;;;;;5057929;28;20052;-64
2022/07/05 02:48:30;;;;;;;5.90;4.35;;;14.30;99.90;;;;;;5065429;28;20485;-64
2022/07/05 02:50:55;;;;;;;8.75;4.80;;;14.30;99.90;;;;;;5069999;28;20036;-64
2022/07/05 02:53:21;;;;;;;7.25;4.55;;;14.20;99.90;;;;;;5067326;28;20051;-67
2022/07/05 02:55:47;;;;;;;7.68;4.43;;;14.20;99.90;;;;;;5069767;28;20063;-66
2022/07/05 02:58:12;;;;;;;7.95;4.70;;;14.20;99.90;;;;;;5070209;28;20048;-64
2022/07/05 03:00:38;;;;;;;6.78;4.53;;;14.20;99.90;;;;;;5069490;28;20036;-64
2022/07/05 03:03:04;;;;;;;5.78;4.55;;;14.20;99.90;;;;;;5065030;28;20040;-64
2022/07/05 03:05:30;;;;;;;9.15;4.55;;;14.10;99.90;;;;;;5058189;28;20040;-64
2022/07/05 03:07:55;;;;;;;6.15;4.57;;;14.10;99.90;;;;;;5064151;28;20115;-64
2022/07/05 03:10:21;;;;;;;8.20;4.68;;;14.10;99.90;;;;;;5053312;28;20052;-64
2022/07/05 03:12:47;;;;;;;5.03;3.90;;;14.10;99.90;;;;;;5057076;28;20136;-64
2022/07/05 03:15:12;;;;;;;7.75;4.68;;;14.10;99.90;;;;;;5060668;28;20124;-64
2022/07/05 03:17:38;;;;;;;5.68;4.57;;;14.10;99.90;;;;;;5062301;28;20050;-65
2022/07/05 03:20:04;;;;;;;6.15;4.07;;;14.00;99.90;;;;;;5066654;28;20086;-64
2022/07/05 03:22:30;;;;;;;7.78;4.70;;;14.10;99.90;;;;;;5068577;28;20048;-64
2022/07/05 03:24:56;;;;;;;5.95;4.63;;;14.10;99.90;;;;;;5065964;28;20039;-64
2022/07/05 03:27:21;;;;;;;7.45;4.68;;;14.00;99.90;;;;;;5068915;28;20040;-64
2022/07/05 03:29:47;;;;;;;6.68;4.75;;;14.00;99.90;;;;;;5068621;28;20481;-64
2022/07/05 03:32:12;;;;;;;6.13;4.30;;;14.00;99.90;;;;;;5068077;28;20099;-64
2022/07/05 03:34:38;;;;;;;6.63;4.65;;;14.00;99.90;;;;;;5068285;28;20048;-64
2022/07/05 03:37:04;;;;;;;6.03;4.82;;;14.00;99.90;;;;;;5069361;28;20072;-64
2022/07/05 03:39:30;;;;;;;8.05;4.47;;;14.00;99.90;;;;;;5068550;28;20104;-64
2022/07/05 03:41:55;;;;;;;6.68;4.90;;;14.00;99.90;;;;;;5069261;28;20040;-67
2022/07/05 03:44:21;;;;;;;7.90;5.57;;;13.90;99.90;;;;;;5070110;28;20044;-64
2022/07/05 03:46:47;;;;;;;7.80;5.22;;;13.90;99.90;;;;;;5051753;28;20092;-64
2022/07/05 03:49:12;;;;;;;7.03;4.93;;;13.90;99.90;;;;;;5069472;28;20132;-64
2022/07/05 03:51:38;;;;;;;6.97;5.00;;;14.00;99.90;;;;;;5051842;28;20091;-64
2022/07/05 03:54:04;;;;;;;7.22;5.10;;;14.00;99.90;;;;;;5068819;28;20053;-65
2022/07/05 03:56:30;;;;;;;8.10;5.20;;;14.00;99.90;;;;;;5069825;28;20473;-64
2022/07/05 03:58:56;;;;;;;9.75;5.00;;;14.00;99.90;;;;;;5068930;28;20048;-67
2022/07/05 04:01:22;;;;;;;6.95;5.00;;;14.00;99.90;;;;;;5068336;28;20123;-64
2022/07/05 04:03:48;;;;;;;9.38;5.20;;;14.00;99.90;;;;;;5069166;28;20552;-65
2022/07/05 04:06:14;;;;;;;5.75;4.82;;;14.00;99.90;;;;;;5068338;28;20127;-64
2022/07/05 04:08:40;;;;;;;6.75;4.82;;;14.00;99.90;;;;;;5069653;28;20484;-64
2022/07/05 04:11:06;;;;;;;6.40;4.75;;;14.00;99.90;;;;;;5069643;28;20464;-64
2022/07/05 04:13:32;;;;;;;7.65;5.07;;;14.00;99.90;;;;;;5073740;28;20043;-64
2022/07/05 04:15:57;;;;;;;11.25;4.65;;;14.10;99.90;;;;;;5073462;28;20489;-64
2022/07/05 04:18:23;;;;;;;5.68;4.57;;;14.10;99.90;;;;;;5072081;28;20040;-64
2022/07/05 04:20:49;;;;;;;8.52;4.68;;;14.10;99.90;;;;;;5071874;28;20489;-64
2022/07/05 04:23:15;;;;;;;7.55;4.40;;;14.10;99.90;;;;;;5072969;28;20048;-65
2022/07/05 04:25:40;;;;;;;6.32;4.72;;;14.20;99.90;;;;;;5073368;28;20040;-65
2022/07/05 04:28:06;;;;;;;7.68;4.72;;;14.20;99.90;;;;;;5072830;28;20139;-65
2022/07/05 04:30:32;;;;;;;7.57;4.53;;;14.20;99.90;;;;;;5072341;28;20059;-64
2022/07/05 04:32:58;;;;;;;7.13;4.70;;;14.20;99.90;;;;;;5073388;28;20051;-64
2022/07/05 04:35:24;;;;;;;7.97;4.60;;;14.20;99.90;;;;;;5071154;28;20481;-64
2022/07/05 04:37:49;;;;;;;6.32;4.22;;;14.30;99.90;;;;;;5073339;28;20045;-64
2022/07/05 04:40:15;;;;;;;6.18;4.85;;;14.40;99.90;;;;;;5071361;28;20095;-64
2022/07/05 04:42:42;;;;;;;6.07;4.38;;;14.50;99.90;;;;;;5073169;28;20056;-64
2022/07/05 04:45:08;;;;;;;5.57;4.05;;;14.60;99.90;;;;;;5072348;28;20055;-65
2022/07/05 04:47:34;;;;;;;8.95;4.38;;;14.70;99.90;;;;;;5072765;28;20045;-64
2022/07/05 04:50:01;;;;;;;8.05;4.25;;;15.00;99.90;;;;;;5054754;28;20056;-64
2022/07/05 04:52:27;;;;;;;6.38;3.58;;;15.20;99.90;;;;;;5066477;28;20077;-65
2022/07/05 04:54:53;;;;;;;7.47;3.95;;;15.70;99.90;;;;;;5072255;28;20080;-64
2022/07/05 04:57:19;;;;;;;6.20;3.75;;;16.50;99.90;;;;;;5072467;28;20056;-64
2022/07/05 04:59:44;;;;;;;6.50;3.40;;;17.10;99.90;;;;;;5071405;28;20458;-65
2022/07/05 05:02:10;;;;;;;5.90;3.50;;;17.70;99.90;;;;;;5072384;28;20102;-65
2022/07/05 05:04:36;;;;;;;4.35;3.13;;;18.10;99.90;;;;;;5072097;28;20549;-64
2022/07/05 05:07:02;;;;;;;5.28;2.75;;;18.60;99.90;;;;;;5071532;28;20497;-65
2022/07/05 05:09:28;;;;;;;5.30;2.50;;;19.40;99.90;;;;;;5066610;28;20051;-64
2022/07/05 05:11:54;;;;;;;5.13;2.88;;;;;;;;;;5070963;28;20045;-64
2022/07/05 05:14:20;;;;;;;5.65;2.70;;;20.20;99.90;;;;;;5072328;28;20154;-66
2022/07/05 05:16:45;;;;;;;4.40;2.40;;;21.90;99.70;;;;;;5071414;28;20044;-65
2022/07/05 05:19:11;;;;;;;6.95;2.60;;;22.60;99.10;;;;;;5071933;28;20120;-65
2022/07/05 05:21:37;;;;;;;6.40;2.78;;;23.20;99.10;;;;;;5072263;28;20136;-65
2022/07/05 05:24:02;;;;;;;7.70;2.20;;;23.80;95.70;;;;;;5072019;28;20082;-65
2022/07/05 05:26:28;;;;;;;6.43;2.55;;;24.40;94.70;;;;;;5070757;28;20091;-65
2022/07/05 05:28:54;;;;;;;6.00;2.30;;;25.00;94.10;;;;;;5038471;28;20048;-65
2022/07/05 05:31:20;;;;;;;5.70;2.55;;;25.60;93.30;;;;;;5069182;28;20063;-64
2022/07/05 05:33:46;;;;;;;3.95;2.20;;;26.00;92.00;;;;;;5064908;28;20040;-64
2022/07/05 05:36:12;;;;;;;4.45;2.10;;;26.40;92.30;;;;;;5048134;28;20474;-65
2022/07/05 05:38:38;;;;;;;3.60;1.95;;;26.90;91.90;;;;;;5069879;28;20132;-64
2022/07/05 05:41:03;;;;;;;4.88;2.30;;;27.20;90.50;;;;;;5064395;28;20468;-65
2022/07/05 05:43:29;;;;;;;4.60;2.25;;;27.10;90.00;;;;;;5064486;28;20110;-64
2022/07/05 05:45:55;;;;;;;5.10;2.42;;;27.30;89.30;;;;;;5067185;28;20105;-64
2022/07/05 05:48:21;;;;;;;4.45;1.95;;;27.40;88.90;;;;;;5063783;28;20175;-65
2022/07/05 05:50:47;;;;;;;4.32;1.95;;;27.50;89.50;;;;;;5065164;28;20056;-64
2022/07/05 05:53:13;;;;;;;18.08;4.78;;;27.60;87.50;;;;;;5061710;28;20060;-68
2022/07/05 05:55:40;;;;;;;33.00;11.93;;;27.40;88.00;;;;;;5055720;28;20060;-65
2022/07/05 05:58:14;;;;;;;7.13;2.60;;;27.60;88.50;;;;;;5056248;28;20056;-65
2022/07/05 06:00:40;;;;;;;4.00;1.90;;;27.80;88.20;;;;;;5052621;28;20448;-64
2022/07/05 06:03:06;;;;;;;6.45;2.15;;;28.00;89.00;;;;;;5073365;28;20056;-65
2022/07/05 06:05:32;;;;;;;3.97;1.95;;;28.00;87.70;;;;;;5066121;28;20097;-66
2022/07/05 06:07:58;;;;;;;5.15;2.20;;;28.00;86.90;;;;;;5047671;28;20137;-65
2022/07/05 06:10:30;;;;;;;6.50;2.10;;;28.20;85.80;;;;;;5048785;28;20053;-64
2022/07/05 06:12:59;;;;;;;5.85;2.00;;;28.20;86.90;;;;;;5063009;28;20041;-66
2022/07/05 06:15:25;;;;;;;4.75;1.80;;;28.50;85.90;;;;;;5067541;28;20048;-65
2022/07/05 06:17:51;;;;;;;6.15;1.80;;;28.30;84.60;;;;;;5055360;28;20053;-66
2022/07/05 06:20:22;;;;;;;5.47;1.85;;;28.50;85.60;;;;;;5067679;28;20040;-67
2022/07/05 06:22:49;;;;;;;6.40;1.60;;;28.60;84.80;;;;;;5057824;28;20106;-65
2022/07/05 06:25:15;;;;;;;3.35;1.30;;;28.70;84.40;;;;;;5048809;28;20044;-65
2022/07/05 06:27:46;;;;;;;3.50;1.30;;;28.50;84.40;;;;;;5059666;28;20063;-65
2022/07/05 06:30:14;;;;;;;5.90;1.80;;;28.40;84.20;;;;;;5064341;28;20080;-65
2022/07/05 06:32:42;;;;;;;8.45;1.95;;;28.60;84.00;;;;;;5056924;28;20032;-65
2022/07/05 06:35:08;;;;;;;10.23;1.88;;;28.60;84.00;;;;;;5056925;28;20084;-64
2022/07/05 06:37:41;;;;;;;3.30;1.23;;;28.70;84.30;;;;;;5059494;28;20048;-66
2022/07/05 06:40:08;;;;;;;4.65;1.60;;;28.90;84.20;;;;;;5074555;28;20071;-66
2022/07/05 06:42:34;;;;;;;3.53;1.30;;;29.20;84.70;;;;;;5065743;28;20045;-65
2022/07/05 06:45:00;;;;;;;4.10;1.38;;;29.40;83.00;;;;;;5056845;28;20041;-65
2022/07/05 06:47:26;;;;;;;3.65;1.48;;;29.60;82.60;;;;;;5060881;28;20051;-67
2022/07/05 06:49:51;;;;;;;4.18;1.55;;;29.60;83.70;;;;;;5062189;28;20063;-65
2022/07/05 06:52:17;;;;;;;4.30;1.75;;;29.70;82.40;;;;;;5059410;28;20048;-64
2022/07/05 06:54:43;;;;;;;3.80;1.33;;;30.10;82.90;;;;;;5061899;28;20045;-64
2022/07/05 06:57:08;;;;;;;3.58;1.35;;;30.40;81.60;;;;;;5044772;28;20053;-65
2022/07/05 06:59:34;;;;;;;5.95;1.42;;;30.40;81.20;;;;;;5063581;28;20048;-65
2022/07/05 07:02:00;;;;;;;6.05;1.48;;;30.50;80.90;;;;;;5059521;28;20147;-65
2022/07/05 07:04:25;;;;;;;13.05;2.80;;;30.30;80.00;;;;;;5053640;28;20115;-65
2022/07/05 07:06:51;;;;;;;10.50;2.65;;;30.40;80.50;;;;;;5066061;28;20033;-66
2022/07/05 07:09:21;;;;;;;6.03;1.52;;;30.60;80.10;;;;;;5063561;28;20041;-66
2022/07/05 07:11:48;;;;;;;3.85;1.35;;;30.70;79.50;;;;;;5070175;28;20055;-66
2022/07/05 07:14:15;;;;;;;4.25;1.30;;;31.20;78.80;;;;;;5070540;28;20094;-66
2022/07/05 07:16:40;;;;;;;6.32;1.30;;;31.60;79.10;;;;;;5069671;28;20074;-66
2022/07/05 07:19:06;;;;;;;3.65;1.27;;;31.50;76.40;;;;;;5061405;28;20040;-66
2022/07/05 07:21:32;;;;;;;5.50;1.60;;;31.30;75.00;;;;;;5056863;28;20055;-66
2022/07/05 07:23:57;;;;;;;11.02;2.17;;;31.40;75.20;;;;;;5033585;28;20059;-66
2022/07/05 07:26:23;;;;;;;13.10;2.22;;;30.90;75.40;;;;;;5056362;28;20055;-66
2022/07/05 07:28:49;;;;;;;6.80;1.67;;;30.20;74.60;;;;;;5068956;28;20044;-66
2022/07/05 07:31:14;;;;;;;5.47;1.30;;;29.40;75.90;;;;;;5063867;28;20052;-66
2022/07/05 07:33:41;;;;;;;10.07;1.80;;;28.60;76.30;;;;;;5064384;28;20445;-65
2022/07/05 07:36:07;;;;;;;4.25;1.17;;;27.70;78.00;;;;;;5069132;28;20139;-66
2022/07/05 07:38:33;;;;;;;3.05;1.23;;;27.30;78.40;;;;;;5071479;28;20045;-65
2022/07/05 07:41:00;;;;;;;5.95;1.42;;;27.50;78.90;;;;;;5070250;28;20047;-65
2022/07/05 07:43:26;;;;;;;3.95;0.95;;;27.50;79.50;;;;;;5068688;28;20058;-65
2022/07/05 07:45:52;;;;;;;8.50;1.50;;;27.50;79.40;;;;;;5069416;28;20048;-65
2022/07/05 07:48:18;;;;;;;7.70;1.65;;;27.50;79.90;;;;;;5052353;28;20044;-66
2022/07/05 07:50:44;;;;;;;6.30;1.48;;;27.20;79.40;;;;;;5049047;28;20135;-65
2022/07/05 07:53:10;;;;;;;3.22;1.30;;;26.40;79.20;;;;;;5064268;28;20124;-66
2022/07/05 07:55:35;;;;;;;4.68;1.10;;;25.80;79.10;;;;;;5063564;28;20056;-66
2022/07/05 07:58:03;;;;;;;6.13;1.20;;;25.50;80.30;;;;;;5052407;28;20053;-65
2022/07/05 08:00:31;;;;;;;3.42;1.20;;;25.40;81.10;;;;;;5064022;28;20040;-67
2022/07/05 08:02:58;;;;;;;4.40;1.20;;;25.70;80.30;;;;;;5059901;28;20102;-66
2022/07/05 08:05:23;;;;;;;6.97;1.50;;;26.20;80.90;;;;;;5062393;28;20041;-65
2022/07/05 08:07:49;;;;;;;5.70;1.08;;;26.10;79.10;;;;;;5048599;28;20857;-66
2022/07/05 08:10:15;;;;;;;3.17;1.33;;;25.70;79.40;;;;;;5054354;28;20075;-65
2022/07/05 08:12:40;;;;;;;3.33;1.20;;;25.30;79.90;;;;;;5049761;28;20087;-65
2022/07/05 08:15:07;;;;;;;4.05;1.13;;;24.70;81.00;;;;;;5054479;28;20550;-66
2022/07/05 08:17:33;;;;;;;6.18;1.42;;;24.30;81.90;;;;;;5049880;28;20045;-68
2022/07/05 08:22:43;;;;;;;4.43;1.27;;;24.00;83.70;;;;;;5050954;28;20506;-67
2022/07/05 08:25:09;;;;;;;3.70;1.35;;;23.90;83.70;;;;;;5053268;28;20048;-70
2022/07/05 08:27:35;;;;;;;3.78;1.20;;;23.80;83.30;;;;;;5042129;28;20078;-68
2022/07/05 08:30:00;;;;;;;2.15;0.90;;;23.80;83.90;;;;;;5048328;28;20076;-66
2022/07/05 08:32:26;;;;;;;4.82;1.52;;;23.80;83.60;;;;;;5056448;28;20048;-66
2022/07/05 08:34:52;;;;;;;4.85;1.40;;;23.90;83.70;;;;;;5062424;28;20462;-66
2022/07/05 08:37:17;;;;;;;5.53;1.40;;;23.80;83.50;;;;;;5055856;28;20076;-69
2022/07/05 08:39:43;;;;;;;2.83;1.15;;;23.60;83.70;;;;;;5059144;28;20098;-65
2022/07/05 08:42:10;;;;;;;5.97;1.45;;;23.80;84.80;;;;;;5034990;28;20599;-65
2022/07/05 08:44:39;;;;;;;7.75;1.15;;;24.00;84.10;;;;;;5058709;28;20127;-68
2022/07/05 08:47:09;;;;;;;4.13;1.25;;;24.00;83.70;;;;;;5054203;28;20482;-65
2022/07/05 08:49:38;;;;;;;5.97;1.35;;;24.40;84.10;;;;;;5058361;28;20037;-65
2022/07/05 08:52:06;;;;;;;3.88;1.27;;;24.80;81.70;;;;;;5057062;28;20060;-65
2022/07/05 08:54:33;;;;;;;3.47;1.30;;;25.20;81.60;;;;;;5068255;28;20168;-64
2022/07/05 08:56:59;;;;;;;1.92;1.00;;;25.50;81.20;;;;;;5068077;28;20048;-65
2022/07/05 08:59:25;;;;;;;4.32;1.05;;;25.80;81.00;;;;;;5071752;28;20084;-65
2022/07/05 09:01:52;;;;;;;9.68;1.65;;;26.00;79.40;;;;;;5068509;28;20048;-68
2022/07/05 09:04:18;;;;;;;5.50;1.23;;;25.90;79.70;;;;;;5064632;28;20057;-66
2022/07/05 09:06:47;;;;;;;4.97;1.33;;;26.10;79.70;;;;;;5056675;28;20098;-65
2022/07/05 09:09:14;;;;;;;3.85;1.40;;;26.60;80.50;;;;;;5067681;28;20105;-64
2022/07/05 09:11:41;;;;;;;5.43;1.20;;;27.20;80.50;;;;;;5044133;28;20044;-67
2022/07/05 09:14:21;;;;;;;4.15;1.23;;;27.10;79.70;;;;;;5054632;28;20037;-64
2022/07/05 09:16:48;;;;;;;5.30;1.27;;;26.50;79.00;;;;;;5068108;28;20472;-64
2022/07/05 09:19:14;;;;;;;2.88;1.13;;;25.90;79.90;;;;;;5056344;28;20076;-65
2022/07/05 09:21:40;;;;;;;3.10;1.10;;;25.60;79.80;;;;;;5070342;28;20048;-66
2022/07/05 09:24:08;;;;;;;4.88;1.23;;;25.70;80.50;;;;;;5062501;28;20057;-65
2022/07/05 09:26:44;;;;;;;8.70;1.80;;;26.10;80.30;;;;;;5035343;28;20505;-66
2022/07/05 09:29:18;;;;;;;5.97;1.10;;;26.00;80.20;;;;;;5070909;28;20529;-63
2022/07/05 09:31:46;;;;;;;4.03;1.02;;;25.80;80.20;;;;;;5061757;28;20040;-67
2022/07/05 09:34:16;;;;;;;3.58;1.10;;;25.50;81.10;;;;;;5056723;28;20051;-64
2022/07/05 09:37:04;;;;;;;8.75;1.50;;;25.70;81.60;;;;;;5066657;28;20123;-66
2022/07/05 09:39:29;;;;;;;8.32;1.45;;;25.60;81.70;;;;;;5063613;28;20048;-63
2022/07/05 09:42:11;;;;;;;4.78;1.30;;;25.30;82.80;;;;;;5060175;28;20376;-64
2022/07/05 09:44:39;;;;;;;4.15;1.00;;;25.00;83.40;;;;;;5061888;28;20060;-64
2022/07/05 09:47:12;;;;;;;4.22;0.98;;;24.50;83.80;;;;;;5062734;28;20125;-64
2022/07/05 09:49:42;;;;;;;6.20;1.30;;;24.30;84.70;;;;;;5065457;28;20040;-65
2022/07/05 09:52:08;;;;;;;2.20;1.20;;;24.10;85.00;;;;;;5062654;28;20127;-64
2022/07/05 09:54:34;;;;;;;4.25;1.20;;;24.10;85.70;;;;;;5067586;28;20090;-64
2022/07/05 09:57:00;;;;;;;4.47;1.27;;;24.10;85.70;;;;;;5044944;28;20048;-64
2022/07/05 09:59:26;;;;;;;4.78;1.30;;;24.10;85.00;;;;;;5077722;28;20037;-62
2022/07/05 10:01:52;;;;;;;5.40;1.63;;;24.10;84.20;;;;;;5067653;28;20044;-63
2022/07/05 10:04:18;;;;;;;2.58;1.10;;;24.00;83.30;;;;;;5063410;28;20052;-63
2022/07/05 10:06:44;;;;;;;7.90;1.48;;;24.00;83.60;;;;;;5063534;28;20040;-63
2022/07/05 10:09:11;;;;;;;6.43;1.48;;;24.10;84.10;;;;;;5062102;28;20041;-63
2022/07/05 10:11:42;;;;;;;2.63;1.10;;;24.20;84.00;;;;;;5064814;28;20033;-62
2022/07/05 10:14:26;;;;;;;3.17;1.08;;;24.20;82.80;;;;;;5061159;28;20069;-63
2022/07/05 10:17:01;;;;;;;3.47;1.05;;;24.40;81.60;;;;;;5064113;28;20033;-63
2022/07/05 10:19:33;;;;;;;5.20;1.10;;;24.60;81.60;;;;;;5060086;28;20040;-62
2022/07/05 10:21:59;;;;;;;4.00;1.10;;;24.60;81.40;;;;;;5058556;28;20041;-64
2022/07/05 10:24:25;;;;;;;2.60;1.02;;;24.60;79.30;;;;;;5060108;28;20041;-63
2022/07/05 10:26:51;;;;;;;3.40;1.25;;;24.70;79.40;;;;;;5058097;28;20037;-66
2022/07/05 10:29:17;;;;;;;5.22;1.30;;;24.60;80.30;;;;;;5067324;28;20155;-64
2022/07/05 10:31:44;;;;;;;5.60;1.10;;;24.50;81.60;;;;;;5069847;28;20043;-64
2022/07/05 10:34:10;;;;;;;2.30;1.10;;;24.30;83.90;;;;;;5066391;28;20252;-64
2022/07/05 10:36:38;;;;;;;4.63;1.33;;;24.00;83.40;;;;;;5041283;28;20041;-66
2022/07/05 10:39:05;;;;;;;3.67;1.02;;;23.80;84.90;;;;;;5063840;28;20056;-64
2022/07/05 10:41:31;;;;;;;5.13;1.25;;;24.00;85.20;;;;;;5047276;28;20084;-63
2022/07/05 10:43:57;;;;;;;3.22;1.10;;;24.20;83.80;;;;;;5059977;28;20037;-64
2022/07/05 10:46:36;;;;;;;3.92;1.15;;;24.30;83.50;;;;;;5063765;28;20394;-65
2022/07/05 10:49:17;;;;;;;3.25;1.25;;;24.30;80.40;;;;;;5055166;28;20114;-63
2022/07/05 10:51:43;;;;;;;3.40;1.27;;;24.20;81.20;;;;;;5063062;28;20425;-63
2022/07/05 10:54:09;;;;;;;5.13;1.10;;;24.00;81.00;;;;;;5064675;28;20044;-64
2022/07/05 10:56:36;;;;;;;5.55;1.50;;;24.00;80.80;;;;;;5070123;28;20406;-63
2022/07/05 10:59:12;;;;;;;3.22;1.38;;;24.10;81.50;;;;;;5070678;28;20121;-63
2022/07/05 11:01:42;;;;;;;5.28;1.25;;;23.90;82.90;;;;;;5069469;28;20052;-63
2022/07/05 11:04:18;;;;;;;4.05;1.30;;;23.80;84.10;;;;;;5070537;28;20057;-63
2022/07/05 11:06:49;;;;;;;5.88;1.15;;;23.60;84.40;;;;;;5070250;28;20044;-63
2022/07/05 11:09:17;;;;;;;3.55;0.98;;;23.60;84.10;;;;;;5070431;28;20055;-63
2022/07/05 11:11:46;;;;;;;3.75;1.20;;;23.80;81.90;;;;;;5070408;28;20044;-63
2022/07/05 11:14:21;;;;;;;4.40;1.10;;;24.00;82.00;;;;;;5070183;28;20052;-63
2022/07/05 11:17:15;;;;;;;3.28;1.05;;;24.00;82.80;;;;;;5068881;28;20098;-63
2022/07/05 11:20:01;;;;;;;6.60;1.02;;;24.00;82.40;;;;;;5066066;28;20097;-63
2022/07/05 11:22:27;;;;;;;4.75;1.30;;;23.90;82.90;;;;;;5070440;28;20098;-63
2022/07/05 11:24:54;;;;;;;4.10;1.35;;;23.70;84.10;;;;;;5070309;28;20044;-63
2022/07/05 11:27:20;;;;;;;2.97;1.05;;;23.70;84.40;;;;;;5070104;28;20044;-64
2022/07/05 11:29:51;;;;;;;3.47;1.30;;;23.70;83.30;;;;;;5070001;28;20139;-63
2022/07/05 11:32:28;;;;;;;5.95;1.27;;;23.80;83.00;;;;;;5068730;28;20049;-64
2022/07/05 11:35:11;;;;;;;4.97;1.20;;;23.70;82.70;;;;;;5070521;28;20047;-64
2022/07/05 11:38:00;;;;;;;3.13;0.98;;;23.70;83.30;;;;;;5063116;28;20036;-62
2022/07/05 11:40:29;;;;;;;4.68;1.13;;;23.60;83.20;;;;;;5070338;28;20041;-63
2022/07/05 11:42:54;;;;;;;4.68;1.00;;;23.50;83.50;;;;;;5070462;28;20036;-63
2022/07/05 11:45:20;;;;;;;3.90;1.42;;;23.30;84.20;;;;;;5068110;28;20093;-63
2022/07/05 11:47:46;;;;;;;3.95;1.02;;;22.90;87.80;;;;;;5070395;28;20048;-63
2022/07/05 11:50:12;;;;;;;3.15;1.10;;;22.70;88.60;;;;;;5069371;28;20040;-63
2022/07/05 11:52:39;;;;;;;10.30;2.10;;;22.60;90.20;;;;;;5063590;28;20107;-63
2022/07/05 11:55:09;;;;;;;6.55;1.60;;;22.40;90.50;;;;;;5065992;28;20401;-63
2022/07/05 11:57:36;;;;;;;5.75;1.38;;;22.30;91.00;;;;;;5062486;28;20056;-63
2022/07/05 12:00:04;;;;;;;6.13;1.40;;;22.20;91.30;;;;;;5068257;28;20052;-64
2022/07/05 12:02:30;;;;;;;4.20;1.30;;;21.90;91.40;;;;;;5069509;28;20094;-63
2022/07/05 12:04:57;;;;;;;3.70;1.30;;;21.90;91.80;;;;;;5052006;28;20044;-63
2022/07/05 12:07:29;;;;;;;5.20;1.63;;;21.70;91.90;;;;;;5069159;28;20454;-63
2022/07/05 12:12:43;;;;;;;6.20;1.70;;;21.70;91.30;;;;;;5069430;28;20045;-63
2022/07/05 12:15:15;;;;;;;4.32;1.25;;;21.60;91.60;;;;;;5069213;28;20051;-63
2022/07/05 12:17:44;;;;;;;3.10;1.27;;;21.50;91.90;;;;;;5068941;28;20052;-63
2022/07/05 12:20:12;;;;;;;5.45;1.75;;;21.40;92.40;;;;;;5068812;28;20049;-63
2022/07/05 12:22:43;;;;;;;4.70;1.42;;;21.30;91.90;;;;;;5069895;28;20056;-63
2022/07/05 12:25:22;;;;;;;4.72;1.40;;;21.10;92.20;;;;;;5069300;28;20577;-64
2022/07/05 12:27:50;;;;;;;5.65;1.58;;;21.10;92.70;;;;;;5070003;28;20048;-63
2022/07/05 12:30:16;;;;;;;5.10;1.25;;;21.00;92.90;;;;;;5067816;28;20436;-64
2022/07/05 12:32:59;;;;;;;4.43;1.38;;;21.00;92.60;;;;;;5071125;28;20098;-62
2022/07/05 12:35:34;;;;;;;5.30;1.35;;;21.10;92.30;;;;;;5072875;28;20044;-65
2022/07/05 12:38:09;;;;;;;5.75;1.58;;;21.30;91.40;;;;;;5083710;28;20076;-63
2022/07/05 12:40:36;;;;;;;5.05;1.27;;;21.40;91.00;;;;;;5073342;28;20048;-62
2022/07/05 12:43:05;;;;;;;4.70;1.40;;;21.50;91.20;;;;;;5073179;28;20119;-62
2022/07/05 12:45:30;;;;;;;7.50;1.60;;;21.60;90.30;;;;;;5073075;28;20409;-63
2022/07/05 12:47:57;;;;;;;3.40;1.00;;;21.70;90.10;;;;;;5073177;28;20075;-62
2022/07/05 12:50:28;;;;;;;5.30;1.30;;;21.80;90.10;;;;;;5068842;28;20086;-63
2022/07/05 12:58:53;;;;;;;3.17;1.30;;;21.80;89.40;;;;;;5072563;28;20052;-63
2022/07/05 13:01:37;;;;;;;2.97;1.20;;;21.70;90.00;;;;;;5072577;28;20375;-62
2022/07/05 13:04:13;;;;;;;2.58;0.85;;;21.60;89.60;;;;;;5073199;28;20048;-62